METAR AND TAF INFORMATION
METAR FOR EDNY
ADDS - METARS form results

(2047 UTC 03 August 2021)
Data provider http://aviationweather.gov/metar/data/
 
METAR text: EDNY 032020Z AUTO 20004KT 9999 // FEW031/// BKN074/// OVC085/// 15/12 Q1017
Conditions at: EDNY (FRIEDRICHSHAFEN , DE) observed 2020 UTC 03 August 2021
Temperature: 15.0°C (59°F)
Dewpoint: 12.0°C (54°F) [RH = 82%]
Pressure (altimeter): 30.03 inches Hg (1017.0 mb)
Winds: from the SSW (200 degrees) at 5 MPH (4 knots; 2.1 m/s)
Visibility: 6 or more miles (10+ km)
Ceiling: 7400 feet AGL
Clouds: few clouds at 3100 feet AGL
broken clouds at 7400 feet AGL
overcast cloud deck at 8500 feet AGL
Weather: no significant weather observed at this time

METAR text: EDNY 031950Z 20005KT 9999 FEW020 15/13 Q1017
Conditions at: EDNY (FRIEDRICHSHAFEN , DE) observed 1950 UTC 03 August 2021
Temperature: 15.0°C (59°F)
Dewpoint: 13.0°C (55°F) [RH = 88%]
Pressure (altimeter): 30.03 inches Hg (1017.0 mb)
Winds: from the SSW (200 degrees) at 6 MPH (5 knots; 2.6 m/s)
Visibility: 6 or more miles (10+ km)
Ceiling: at least 12,000 feet AGL
Clouds: few clouds at 2000 feet AGL
Weather: no significant weather observed at this time

Forecast for: EDNY (FRIEDRICHSHAFEN , DE)
Text: TAF EDNY 031700Z 0318/0418 VRB03KT 9999 SCT030
Forecast period: 1800 UTC 03 August 2021 to 1800 UTC 04 August 2021
Forecast type: FROM: standard forecast or significant change
Winds: variable direction winds at 3 MPH (3 knots; 1.5 m/s)
Visibility: 6 or more miles (10+ km)
Ceiling: at least 12,000 feet AGL
Clouds: scattered clouds at 3000 feet AGL
Weather: no significant weather forecast for this period

 AIRPORT MAP

 RUNWAY INFORMATION
Runway 06 Runway length 7729 ft Runway width 148 ft
Runway elevation 1334 ft Runway displaced threshold 885 ft Runway heading 60
Runway 24 Runway length 7729 ft Runway width 148 ft
Runway elevation 1367 ft Runway displaced threshold 675 ft Runway heading 240

 AIRPORT FREQUENCIES
Type APP Name ZURICH ARR Frequency 119.925 MHZ
Type ATIS Name ATIS Frequency 129.6 MHZ
Type INFO Name INFO Frequency 122.5 MHZ
Type RDO Name MUNCHEN IN Frequency 126.95 MHZ
Type TWR Name TWR Frequency 120.075 MHZ

 AIRPORT NEAR NAVIGATION AIDS
Type NDB Name Friedrichshafen Frequency 473 KHZ
Type DME Name Friedrichshafen Frequency 112600 KHZ





Powered by Virtual Airlines Manager

Maps by Rafael Santos